createdAt,value
2023-05-17T00:01:02.172Z,6.63
2023-05-17T00:03:29.885Z,8.07
2023-05-17T00:05:57.552Z,8.20
2023-05-17T00:08:26.700Z,7.78
2023-05-17T00:10:54.414Z,6.30
2023-05-17T00:13:22.302Z,7.57
2023-05-17T00:15:50.025Z,7.95
2023-05-17T00:18:17.882Z,7.82
2023-05-17T00:20:45.677Z,8.82
2023-05-17T00:23:13.428Z,9.10
2023-05-17T00:25:42.560Z,8.45
2023-05-17T00:28:10.311Z,8.52
2023-05-17T00:30:38.031Z,7.95
2023-05-17T00:33:05.778Z,8.13
2023-05-17T00:35:33.504Z,9.68
2023-05-17T00:38:01.541Z,12.27
2023-05-17T00:40:29.303Z,10.17
2023-05-17T00:42:58.445Z,8.45
2023-05-17T00:45:26.354Z,11.98
2023-05-17T00:47:54.205Z,8.30
2023-05-17T00:50:22.222Z,10.45
2023-05-17T00:52:50.061Z,12.30
2023-05-17T00:55:19.689Z,11.18
2023-05-17T00:57:47.533Z,9.20
2023-05-17T01:00:17.086Z,9.80
2023-05-17T01:02:48.419Z,9.93
2023-05-17T01:05:16.438Z,11.75
2023-05-17T01:07:44.200Z,9.90
2023-05-17T01:10:12.405Z,10.00
2023-05-17T01:12:49.759Z,13.53
2023-05-17T01:15:23.661Z,11.27
2023-05-17T01:17:54.931Z,14.90
2023-05-17T01:20:28.171Z,14.02
2023-05-17T01:23:11.031Z,12.35
2023-05-17T01:25:47.743Z,13.88
2023-05-17T01:28:17.863Z,13.27
2023-05-17T01:30:46.638Z,14.20
2023-05-17T01:33:14.715Z,13.20
2023-05-17T01:35:42.484Z,12.60
2023-05-17T01:38:10.319Z,11.55
2023-05-17T01:40:41.194Z,14.20
2023-05-17T01:43:14.826Z,13.17
2023-05-17T01:45:48.612Z,14.65
2023-05-17T01:48:22.966Z,14.95
2023-05-17T01:50:52.364Z,12.60
2023-05-17T01:53:23.437Z,12.85
2023-05-17T01:55:52.321Z,9.68
2023-05-17T01:58:22.908Z,15.98
2023-05-17T02:00:54.228Z,14.40
2023-05-17T02:03:22.480Z,14.95
2023-05-17T02:05:50.252Z,11.30
2023-05-17T02:08:18.083Z,15.13
2023-05-17T02:10:45.772Z,12.00
2023-05-17T02:13:13.817Z,13.05
2023-05-17T02:15:41.576Z,13.43
2023-05-17T02:18:11.804Z,11.35
2023-05-17T02:20:39.686Z,12.02
2023-05-17T02:23:07.419Z,12.48
2023-05-17T02:25:35.179Z,12.77
2023-05-17T02:28:02.940Z,13.82
2023-05-17T02:30:30.692Z,11.65
2023-05-17T02:32:58.513Z,10.10
2023-05-17T02:35:28.049Z,10.77
2023-05-17T02:37:56.142Z,10.50
2023-05-17T02:40:23.832Z,12.63
2023-05-17T02:42:51.646Z,14.85
2023-05-17T02:45:19.533Z,9.30
2023-05-17T02:47:47.311Z,15.07
2023-05-17T02:50:15.149Z,9.68
2023-05-17T02:52:44.346Z,13.98
2023-05-17T02:55:12.117Z,15.27
2023-05-17T02:57:39.883Z,16.00
2023-05-17T03:00:10.479Z,14.43
2023-05-17T03:02:38.306Z,13.55
2023-05-17T03:05:06.998Z,15.73
2023-05-17T03:07:34.835Z,10.70
2023-05-17T03:10:03.956Z,13.57
2023-05-17T03:12:31.683Z,12.98
2023-05-17T03:14:59.397Z,11.70
2023-05-17T03:17:27.206Z,14.38
2023-05-17T03:19:55.402Z,13.65
2023-05-17T03:22:23.381Z,14.20
2023-05-17T03:24:51.028Z,12.00
2023-05-17T03:27:20.194Z,15.18
2023-05-17T03:29:48.011Z,13.02
2023-05-17T03:32:15.686Z,11.52
2023-05-17T03:34:43.351Z,12.85
2023-05-17T03:37:11.083Z,11.73
2023-05-17T03:39:38.800Z,12.13
2023-05-17T03:42:07.299Z,11.07
2023-05-17T03:44:36.406Z,15.02
2023-05-17T03:47:04.109Z,12.98
2023-05-17T03:49:31.851Z,13.27
2023-05-17T03:51:59.587Z,9.65
2023-05-17T03:54:27.418Z,13.13
2023-05-17T03:56:55.158Z,12.45
2023-05-17T03:59:22.922Z,12.98
2023-05-17T04:01:52.050Z,11.23
2023-05-17T04:04:19.824Z,9.57
2023-05-17T04:06:48.080Z,11.47
2023-05-17T04:09:15.764Z,12.65
2023-05-17T04:11:43.720Z,11.57
2023-05-17T04:14:11.412Z,16.05
2023-05-17T04:16:39.149Z,16.20
2023-05-17T04:19:08.531Z,14.88
2023-05-17T04:21:36.387Z,16.45
2023-05-17T04:24:04.225Z,10.93
2023-05-17T04:26:32.229Z,12.68
2023-05-17T04:28:59.959Z,15.20
2023-05-17T04:31:27.706Z,16.73
2023-05-17T04:33:55.466Z,14.43
2023-05-17T04:36:24.636Z,12.98
2023-05-17T04:38:52.493Z,11.82
2023-05-17T04:41:20.198Z,14.43
2023-05-17T04:43:47.989Z,15.87
2023-05-17T04:46:16.005Z,11.98
2023-05-17T04:48:43.868Z,16.10
2023-05-17T04:51:11.913Z,13.00
2023-05-17T04:53:41.057Z,15.17
2023-05-17T04:56:08.932Z,13.13
2023-05-17T04:58:36.768Z,11.80
2023-05-17T05:01:04.745Z,15.95
2023-05-17T05:03:32.598Z,13.55
2023-05-17T05:06:00.398Z,12.68
2023-05-17T05:08:28.064Z,13.82
2023-05-17T05:10:57.126Z,11.73
2023-05-17T05:13:24.846Z,14.73
2023-05-17T05:15:52.686Z,11.93
2023-05-17T05:18:20.390Z,14.35
2023-05-17T05:20:49.630Z,12.88
2023-05-17T05:23:18.538Z,14.43
2023-05-17T05:25:47.399Z,13.60
2023-05-17T05:28:16.562Z,14.60
2023-05-17T05:30:44.366Z,11.25
2023-05-17T05:33:12.161Z,14.52
2023-05-17T05:35:40.192Z,11.83
2023-05-17T05:38:07.950Z,11.57
2023-05-17T05:40:35.686Z,10.70
2023-05-17T05:43:03.485Z,16.90
2023-05-17T05:45:32.578Z,15.30
2023-05-17T05:48:00.349Z,16.17
2023-05-17T05:50:28.361Z,11.80
2023-05-17T05:53:10.452Z,16.92
2023-05-17T05:55:45.599Z,9.15
2023-05-17T05:58:13.364Z,10.73
2023-05-17T06:00:42.479Z,10.63
2023-05-17T06:03:10.415Z,13.05
2023-05-17T06:05:38.666Z,11.80
2023-05-17T06:08:06.813Z,10.00
2023-05-17T06:10:34.552Z,11.02
2023-05-17T06:13:02.366Z,9.07
2023-05-17T06:15:32.877Z,7.93
2023-05-17T06:18:02.158Z,15.05
2023-05-17T06:20:30.273Z,11.18
2023-05-17T06:22:58.267Z,12.57
2023-05-17T06:25:26.185Z,9.88
2023-05-17T06:27:53.873Z,10.38
2023-05-17T06:30:21.858Z,8.20
2023-05-17T06:32:49.699Z,8.48
2023-05-17T06:35:20.117Z,6.18
2023-05-17T06:37:47.839Z,6.32
2023-05-17T06:40:17.108Z,7.55
2023-05-17T06:42:45.215Z,7.45
2023-05-17T06:45:13.274Z,7.35
2023-05-17T06:47:41.323Z,6.70
2023-05-17T06:50:10.270Z,6.88
2023-05-17T06:52:39.445Z,4.90
2023-05-17T06:55:07.827Z,6.03
2023-05-17T06:57:35.645Z,9.85
2023-05-17T07:00:06.821Z,10.20
2023-05-17T07:02:34.903Z,7.60
2023-05-17T07:05:02.831Z,7.20
2023-05-17T07:07:30.645Z,4.00
2023-05-17T07:09:59.844Z,9.80
2023-05-17T07:12:27.705Z,6.55
2023-05-17T07:14:55.573Z,5.17
2023-05-17T07:17:23.323Z,8.07
2023-05-17T07:19:51.380Z,7.07
2023-05-17T07:22:19.341Z,7.30
2023-05-17T07:24:47.648Z,6.67
2023-05-17T07:27:16.746Z,7.05
2023-05-17T07:29:47.240Z,5.55
2023-05-17T07:32:16.028Z,6.53
2023-05-17T07:34:43.866Z,6.05
2023-05-17T07:37:11.605Z,6.85
2023-05-17T07:39:39.319Z,4.35
2023-05-17T07:42:08.041Z,5.03
2023-05-17T07:44:37.228Z,5.75
2023-05-17T07:47:05.177Z,5.97
2023-05-17T07:49:35.415Z,6.32
2023-05-17T07:52:04.017Z,7.20
2023-05-17T07:54:32.421Z,7.90
2023-05-17T07:57:48.509Z,9.65
2023-05-17T08:00:19.385Z,6.03
2023-05-17T08:02:47.196Z,5.68
2023-05-17T08:05:15.074Z,5.43
2023-05-17T08:09:40.184Z,4.07
2023-05-17T08:12:07.915Z,3.95
2023-05-17T08:14:35.617Z,5.28
2023-05-17T08:17:03.495Z,5.20
2023-05-17T08:19:31.636Z,5.80
2023-05-17T08:22:00.733Z,4.10
2023-05-17T08:24:28.462Z,3.97
2023-05-17T08:26:58.625Z,5.73
2023-05-17T08:29:28.732Z,6.73
2023-05-17T08:31:56.906Z,5.90
2023-05-17T08:34:25.730Z,4.53
2023-05-17T08:36:53.853Z,4.45
2023-05-17T08:39:21.666Z,7.90
2023-05-17T08:41:49.498Z,6.53
2023-05-17T08:44:18.616Z,6.00
2023-05-17T08:46:53.875Z,6.80
2023-05-17T08:49:23.787Z,3.50
2023-05-17T08:51:52.365Z,4.05
2023-05-17T08:54:20.134Z,6.15
2023-05-17T08:56:52.333Z,3.88
2023-05-17T08:59:21.581Z,4.53
2023-05-17T09:01:51.005Z,6.05
2023-05-17T09:04:19.180Z,4.60
2023-05-17T09:06:47.101Z,5.32
2023-05-17T09:09:14.983Z,4.03
2023-05-17T09:11:42.749Z,6.18
2023-05-17T09:14:10.481Z,6.43
2023-05-17T09:16:41.275Z,7.10
2023-05-17T09:19:09.714Z,7.45
2023-05-17T09:21:37.939Z,5.85
2023-05-17T09:24:08.307Z,4.32
2023-05-17T09:26:40.591Z,4.90
2023-05-17T09:29:12.744Z,4.30
2023-05-17T09:31:42.268Z,4.43
2023-05-17T09:34:10.272Z,5.90
2023-05-17T09:36:39.509Z,10.60
2023-05-17T09:39:12.663Z,7.38
2023-05-17T09:41:45.387Z,6.50
2023-05-17T09:44:14.338Z,6.03
2023-05-17T09:46:46.282Z,4.68
2023-05-17T09:49:14.628Z,5.18
2023-05-17T09:51:43.869Z,5.65
2023-05-17T09:54:11.906Z,5.53
2023-05-17T09:56:40.154Z,5.40
2023-05-17T09:59:13.006Z,6.45
2023-05-17T10:01:42.257Z,8.98
2023-05-17T10:04:12.580Z,3.63
2023-05-17T10:09:15.023Z,4.28
2023-05-17T10:11:44.646Z,7.93
2023-05-17T10:14:14.994Z,6.33
2023-05-17T10:16:44.079Z,7.95
2023-05-17T10:19:13.618Z,6.90
2023-05-17T10:21:43.058Z,7.20
2023-05-17T10:24:11.561Z,6.22
2023-05-17T10:26:39.858Z,6.03
2023-05-17T10:29:07.789Z,7.47
2023-05-17T10:31:36.494Z,6.67
2023-05-17T10:34:05.678Z,5.07
2023-05-17T10:36:35.272Z,5.10
2023-05-17T10:39:03.330Z,5.63
2023-05-17T10:41:34.471Z,5.85
2023-05-17T10:44:03.805Z,6.40
2023-05-17T10:46:32.364Z,5.43
2023-05-17T10:49:01.907Z,5.43
2023-05-17T10:51:32.300Z,4.88
2023-05-17T10:54:09.956Z,6.03
2023-05-17T10:56:41.576Z,5.32
2023-05-17T10:59:16.897Z,8.70
2023-05-17T11:01:53.444Z,6.03
2023-05-17T11:04:22.637Z,6.63
2023-05-17T11:06:50.792Z,8.77
2023-05-17T11:09:23.707Z,6.57
2023-05-17T11:12:09.058Z,7.82
2023-05-17T11:14:53.456Z,5.72
2023-05-17T11:17:22.755Z,7.05
2023-05-17T11:19:56.596Z,6.20
2023-05-17T11:22:24.672Z,6.43
2023-05-17T11:24:54.909Z,4.67
2023-05-17T11:27:27.429Z,7.18
2023-05-17T11:29:56.550Z,7.85
2023-05-17T11:32:29.086Z,5.50
2023-05-17T11:34:56.864Z,5.22
2023-05-17T11:37:28.061Z,6.63
2023-05-17T11:40:08.787Z,6.15
2023-05-17T11:42:37.298Z,4.03
2023-05-17T11:45:06.046Z,6.50
2023-05-17T11:47:34.042Z,5.20
2023-05-17T11:50:04.524Z,5.03
2023-05-17T11:53:55.370Z,6.90
2023-05-17T11:56:35.668Z,3.50
2023-05-17T11:59:10.226Z,6.95
2023-05-17T12:01:46.099Z,6.30
2023-05-17T12:04:14.197Z,4.93
2023-05-17T12:06:42.466Z,5.28
2023-05-17T12:09:13.505Z,7.28
2023-05-17T12:11:42.451Z,8.27
2023-05-17T12:14:10.235Z,5.85
2023-05-17T12:16:38.501Z,4.40
2023-05-17T12:19:06.411Z,5.40
2023-05-17T12:24:11.990Z,5.53
2023-05-17T12:26:43.915Z,4.43
2023-05-17T12:29:12.228Z,6.60
2023-05-17T12:31:42.561Z,6.33
2023-05-17T12:34:12.745Z,5.63
2023-05-17T12:36:41.493Z,5.65
2023-05-17T12:39:10.228Z,5.38
2023-05-17T12:41:39.693Z,7.50
2023-05-17T12:46:40.044Z,6.60
2023-05-17T12:49:09.306Z,9.18
2023-05-17T12:51:42.151Z,7.90
2023-05-17T12:54:09.896Z,5.10
2023-05-17T12:56:38.990Z,4.65
2023-05-17T12:59:08.204Z,5.28
2023-05-17T13:01:36.821Z,6.65
2023-05-17T13:04:04.895Z,6.57
2023-05-17T13:06:44.837Z,6.35
2023-05-17T13:09:13.288Z,5.80
2023-05-17T13:11:43.454Z,6.88
2023-05-17T13:14:12.495Z,8.80
2023-05-17T13:16:41.040Z,7.78
2023-05-17T13:19:15.373Z,7.60
2023-05-17T13:21:43.112Z,6.05
2023-05-17T13:24:11.281Z,7.22
2023-05-17T13:26:38.998Z,4.82
2023-05-17T13:29:08.084Z,7.20
2023-05-17T13:31:35.892Z,6.22
2023-05-17T13:34:03.707Z,7.05
2023-05-17T13:38:41.363Z,7.23
2023-05-17T13:41:09.895Z,6.22
2023-05-17T13:43:37.705Z,9.00
2023-05-17T13:46:05.447Z,5.78
2023-05-17T13:48:33.530Z,5.57
2023-05-17T13:51:01.971Z,4.78
2023-05-17T13:53:30.019Z,4.80
2023-05-17T13:55:59.135Z,5.40
2023-05-17T13:58:26.898Z,7.75
2023-05-17T14:00:54.635Z,5.82
2023-05-17T14:03:22.684Z,7.57
2023-05-17T14:05:52.730Z,7.50
2023-05-17T14:08:20.607Z,4.38
2023-05-17T14:10:48.312Z,5.63
2023-05-17T14:13:17.431Z,6.17
2023-05-17T14:15:45.145Z,6.88
2023-05-17T14:18:12.879Z,7.40
2023-05-17T14:20:40.678Z,6.23
2023-05-17T14:23:08.369Z,6.15
2023-05-17T14:25:36.089Z,6.30
2023-05-17T14:28:03.823Z,7.47
2023-05-17T16:14:59.088Z,16.38
2023-05-17T16:17:28.215Z,5.85
2023-05-17T16:19:56.197Z,4.22
2023-05-17T16:22:24.007Z,4.65
2023-05-17T16:24:53.660Z,4.72
2023-05-17T16:27:21.720Z,7.70
2023-05-17T16:29:49.363Z,7.25
2023-05-17T16:32:18.673Z,5.70
2023-05-17T16:34:46.557Z,11.70
2023-05-17T16:37:14.284Z,5.22
2023-05-17T19:43:35.655Z,4.95
2023-05-17T19:46:04.002Z,6.50
2023-05-17T19:48:31.777Z,5.38
2023-05-17T19:50:59.520Z,6.15
2023-05-17T19:53:28.604Z,4.18
2023-05-17T19:56:01.041Z,5.05
2023-05-17T19:58:29.313Z,4.28
2023-05-17T20:00:58.441Z,7.25
2023-05-17T20:03:27.157Z,3.83
2023-05-17T20:05:55.133Z,5.70
2023-05-17T20:08:23.276Z,6.72
2023-05-17T20:10:51.027Z,5.60
2023-05-17T20:13:22.998Z,6.38
2023-05-17T20:15:50.709Z,4.75
2023-05-17T20:18:19.809Z,4.72
2023-05-17T20:20:47.515Z,6.72
2023-05-17T20:23:15.269Z,3.30
2023-05-17T20:25:43.113Z,6.30
2023-05-17T20:28:10.905Z,5.15
2023-05-17T20:30:38.640Z,4.15
2023-05-17T20:33:09.131Z,5.60
2023-05-17T20:35:39.601Z,5.70
2023-05-17T20:38:07.320Z,4.95
2023-05-17T20:40:36.565Z,5.80
2023-05-17T20:43:04.316Z,6.85
2023-05-17T20:45:33.754Z,4.05
2023-05-17T20:48:01.536Z,5.38
2023-05-17T20:50:30.025Z,2.42
2023-05-17T20:52:59.246Z,5.72
2023-05-17T20:55:27.029Z,3.65
2023-05-17T20:57:55.066Z,7.75
2023-05-17T21:00:23.311Z,6.32
2023-05-17T21:02:51.349Z,4.75
2023-05-17T21:05:19.353Z,4.40
2023-05-17T21:07:47.109Z,8.45
2023-05-17T21:10:17.794Z,5.47
2023-05-17T21:12:45.576Z,6.25
2023-05-17T21:15:30.875Z,4.28
2023-05-17T21:17:58.821Z,4.57
2023-05-17T21:20:26.698Z,3.67
2023-05-17T21:22:54.499Z,4.05
2023-05-17T21:25:23.936Z,5.45
2023-05-17T21:27:52.057Z,4.63
2023-05-17T21:30:20.178Z,4.97
2023-05-17T21:32:48.001Z,5.90
2023-05-17T21:35:16.092Z,4.10
2023-05-17T21:37:43.818Z,7.82
2023-05-17T21:40:12.038Z,5.40
2023-05-17T21:42:41.282Z,3.20
2023-05-17T21:45:09.716Z,4.10
2023-05-17T21:47:37.515Z,6.45
2023-05-17T21:50:05.881Z,5.32
2023-05-17T21:52:33.840Z,2.30
2023-05-17T21:55:01.596Z,5.50
2023-05-17T21:57:29.326Z,6.70
2023-05-17T21:59:58.353Z,3.67
2023-05-17T22:02:26.383Z,7.07
2023-05-17T22:04:54.730Z,6.78
2023-05-17T22:07:22.475Z,5.90
2023-05-17T22:09:50.269Z,4.03
2023-05-17T22:12:25.102Z,5.88
2023-05-17T22:14:53.534Z,5.93
2023-05-17T22:17:29.572Z,6.13
2023-05-17T22:20:04.071Z,8.65
2023-05-17T22:22:32.790Z,4.80
2023-05-17T22:25:00.628Z,3.97
2023-05-17T22:27:28.382Z,3.88
2023-05-17T22:29:56.086Z,6.00
2023-05-17T22:32:25.492Z,6.88
2023-05-17T22:34:56.071Z,6.10
2023-05-17T22:37:23.928Z,6.32
2023-05-17T22:39:51.655Z,5.47
2023-05-17T22:42:19.402Z,4.47
2023-05-17T22:44:47.276Z,6.68
2023-05-17T22:47:15.406Z,5.05
2023-05-17T22:49:44.698Z,5.95
2023-05-17T22:52:15.925Z,3.85
2023-05-17T22:54:43.635Z,5.13
2023-05-17T22:57:11.814Z,8.45
2023-05-17T22:59:39.670Z,8.07
2023-05-17T23:02:07.389Z,5.65
2023-05-17T23:04:37.765Z,5.97
2023-05-17T23:07:09.761Z,6.38
2023-05-17T23:09:40.403Z,5.35
2023-05-17T23:12:13.861Z,7.90
2023-05-17T23:14:41.648Z,4.05
2023-05-17T23:17:09.879Z,3.72
2023-05-17T23:19:37.558Z,4.80
2023-05-17T23:22:06.735Z,4.25
2023-05-17T23:24:38.359Z,6.43
2023-05-17T23:27:09.884Z,5.95
2023-05-17T23:29:37.835Z,3.38
2023-05-17T23:32:05.944Z,7.78
2023-05-17T23:34:33.779Z,4.40
2023-05-17T23:37:01.436Z,5.32
2023-05-17T23:39:30.636Z,5.68
2023-05-17T23:41:58.347Z,6.15
2023-05-17T23:44:26.795Z,2.85
2023-05-17T23:46:55.369Z,4.80
2023-05-17T23:49:23.957Z,6.13
2023-05-17T23:51:51.755Z,8.20
2023-05-17T23:54:19.987Z,3.53
2023-05-17T23:56:49.131Z,4.28
2023-05-17T23:59:16.871Z,5.72
